Nearby METAR Reports

 

K1A5 - Macon/Franklin, North Carolina, USA
Distance from station: WSW 16mi, 25km
Updated: Wed, 19-Jul-2017 2:55pm EDT
NOT Current
Clear
Clear
 Wind from N
Wind: N 6 mph , 9 km/h
Barometer: 30.17 inHg , 1021.7 hPa
Clouds: Clear
Visibility: 10 miles , 16 km
2017/07/19 18:55 K1A5 191855Z AUTO 01005KT 10SM CLR A3017 RMK AO2
KAVL - Asheville, North Carolina, USA
Distance from station: ENE 36mi, 59km
Updated: Fri, 21-Jul-2017 8:54pm EDT
Clear
Clear
 Wind from S
Wind: S 5 mph , 7 km/h
Temperature: 82°F , 28°C
Heat Index: 86°F , 30°C
Dew Point: 72°F , 22°C
Humidity: 70%
Barometer: 30.09 inHg , 1019 hPa
Clouds: Clear
Visibility: 10 miles , 16 km
2017/07/22 00:54 KAVL 220054Z 18004KT 10SM CLR 28/22 A3009 RMK AO2 SLP159 T02780222
 
KRHP - Andrews, North Carolina, USA
Distance from station: WSW 40mi, 64km
Updated: Fri, 21-Jul-2017 8:45pm EDT
Clear
Clear
 Wind from calm
Wind: Calm
Temperature: 77°F , 25°C
Dew Point: 77°F , 25°C
Humidity: 100%
Barometer: 30.08 inHg , 1018.6 hPa
Clouds: Clear
Visibility: 10 miles , 16 km
2017/07/22 00:45 KRHP 220045Z AUTO 00000KT 10SM CLR 25/25 A3008 RMK AO2 T02460245
KLQK - Pickens, South Carolina, USA
Distance from station: SE 42mi, 68km
Updated: Fri, 21-Jul-2017 8:55pm EDT
Clear
Clear
 Wind from calm
Wind: Calm
Temperature: 82°F , 28°C
Heat Index: 90°F , 32°C
Dew Point: 77°F , 25°C
Humidity: 84%
Barometer: 30.02 inHg , 1016.6 hPa
Clouds: Clear
Visibility: 10 miles , 16 km
2017/07/22 00:55 KLQK 220055Z AUTO 00000KT 10SM CLR 28/25 A3002 RMK AO2 T02800246
 
KCEU - Clemson, South Carolina, USA
Distance from station: SSE 46mi, 75km
Updated: Fri, 21-Jul-2017 8:54pm EDT
Clear
Clear
 Wind from WNW
Wind: WNW 5 mph , 7 km/h
Temperature: 86°F , 30°C
Heat Index: 93°F , 34°C
Dew Point: 73°F , 23°C
Humidity: 66%
Barometer: 30.03 inHg , 1016.9 hPa
Clouds: Clear
Visibility: 10 miles , 16 km
2017/07/22 00:54 KCEU 220054Z AUTO 29004KT 10SM CLR 30/23 A3003 RMK AO2 SLP154 T03000228
KTOC - Toccoa, Georgia, USA
Distance from station: S 49mi, 79km
Updated: Fri, 21-Jul-2017 8:35pm EDT
Clear
Clear
 Wind from calm
Wind: Calm
Temperature: 86°F , 30°C
Heat Index: 97°F , 36°C
Dew Point: 77°F , 25°C
Humidity: 75%
Barometer: 30.02 inHg , 1016.6 hPa
Clouds: Clear
Visibility: 10 miles , 16 km
2017/07/22 00:35 KTOC 220035Z AUTO 00000KT 10SM CLR 30/25 A3002 RMK AO2 T02970245